Time;durP1;ratioP1;P1;durP2;ratioP2;P2;SDS_P1;SDS_P2;PMS_P1;PMS_P2;Temp;Humidity;BMP_temperature;BMP_pressure;BME280_temperature;BME280_humidity;BME280_pressure;Samples;Min_cycle;Max_cycle;Signal;HPM_P1;HPM_P2
2021/11/15 00:19:20;;;;;;;4.95;3.58;;;;;;;;;;4189893;34;20545;-60
2021/11/15 00:21:46;;;;;;;5.22;3.20;;;;;;;;;;4192012;34;20214;-60
2021/11/15 00:24:12;;;;;;;4.15;3.37;;;;;;;;;;4191924;34;20106;-60
2021/11/15 00:26:38;;;;;;;3.40;3.10;;;;;;;;;;4192088;34;20201;-60
2021/11/15 00:29:04;;;;;;;4.25;2.95;;;;;;;;;;4191941;34;20118;-70
2021/11/15 00:31:30;;;;;;;7.60;3.85;;;;;;;;;;4191845;34;20485;-60
2021/11/15 00:33:56;;;;;;;4.47;3.45;;;;;;;;;;4191994;34;20095;-60
2021/11/15 00:36:22;;;;;;;5.62;3.28;;;;;;;;;;4179253;34;20114;-60
2021/11/15 00:38:48;;;;;;;4.53;2.92;;;;;;;;;;4190441;34;20144;-61
2021/11/15 00:41:14;;;;;;;4.80;3.10;;;;;;;;;;4191988;34;20129;-61
2021/11/15 00:43:40;;;;;;;8.60;3.08;;;;;;;;;;4191910;34;20569;-60
2021/11/15 00:46:06;;;;;;;4.32;3.37;;;;;;;;;;4192056;34;20124;-60
2021/11/15 00:48:32;;;;;;;5.00;3.60;;;;;;;;;;4191878;34;20110;-60
2021/11/15 00:50:58;;;;;;;3.40;3.10;;;;;;;;;;4191924;34;20149;-61
2021/11/15 00:53:24;;;;;;;6.43;3.47;;;;;;;;;;4191575;34;20128;-61
2021/11/15 00:55:49;;;;;;;6.05;3.55;;;;;;;;;;4191874;34;20126;-61
2021/11/15 00:58:15;;;;;;;7.45;3.53;;;;;;;;;;4191853;34;20110;-61
2021/11/15 01:00:41;;;;;;;4.43;3.40;;;;;;;;;;4192109;34;20133;-61
2021/11/15 01:03:08;;;;;;;6.95;3.80;;;;;;;;;;4191668;34;20123;-61
2021/11/15 01:05:35;;;;;;;7.93;3.65;;;;;;;;;;4191837;34;20087;-61
2021/11/15 01:08:01;;;;;;;6.95;3.28;;;;;;;;;;4191706;34;20128;-61
2021/11/15 01:10:27;;;;;;;4.93;3.33;;;;;;;;;;4191805;34;20222;-61
2021/11/15 01:12:53;;;;;;;5.80;3.55;;;;;;;;;;4191654;34;20487;-61
2021/11/15 01:15:21;;;;;;;4.07;3.33;;;;;;;;;;4191745;34;20098;-60
2021/11/15 01:17:47;;;;;;;4.43;2.97;;;;;;;;;;4191575;34;20526;-60
2021/11/15 01:20:14;;;;;;;5.75;3.30;;;;;;;;;;4191567;34;20103;-60
2021/11/15 01:22:40;;;;;;;6.12;4.05;;;;;;;;;;4191465;34;20125;-60
2021/11/15 01:25:07;;;;;;;4.20;2.97;;;;;;;;;;4191570;34;20114;-61
2021/11/15 01:27:32;;;;;;;4.15;3.25;;;;;;;;;;4191558;34;20160;-61
2021/11/15 01:29:58;;;;;;;5.07;3.20;;;;;;;;;;4191249;34;20133;-61
2021/11/15 01:32:24;;;;;;;6.60;4.95;;;;;;;;;;4191486;34;20498;-61
2021/11/15 01:34:51;;;;;;;4.22;3.40;;;;;;;;;;4191705;34;20113;-69
2021/11/15 01:37:17;;;;;;;3.45;3.15;;;;;;;;;;4178621;34;20122;-69
2021/11/15 01:39:43;;;;;;;4.07;3.40;;;;;;;;;;4178521;34;20530;-70
2021/11/15 01:42:10;;;;;;;6.22;3.10;;;;;;;;;;4178644;34;20122;-68
2021/11/15 01:44:36;;;;;;;4.78;2.90;;;;;;;;;;4191601;34;20544;-69
2021/11/15 01:47:02;;;;;;;4.47;3.42;;;;;;;;;;4191365;34;20113;-69
2021/11/15 01:49:28;;;;;;;5.57;3.28;;;;;;;;;;4178531;34;20141;-69
2021/11/15 01:51:54;;;;;;;7.22;4.07;;;;;;;;;;4191321;34;20122;-68
2021/11/15 01:54:20;;;;;;;7.07;3.17;;;;;;;;;;4178547;34;20252;-69
2021/11/15 01:56:50;;;;;;;5.47;3.00;;;;;;;;;;4167364;34;20206;-69
2021/11/15 01:59:17;;;;;;;5.25;4.12;;;;;;;;;;4178632;34;20122;-71
2021/11/15 02:01:43;;;;;;;4.50;3.58;;;;;;;;;;4191222;34;20120;-71
2021/11/15 02:04:09;;;;;;;9.32;3.47;;;;;;;;;;4178316;34;20122;-71
2021/11/15 02:06:35;;;;;;;6.12;3.30;;;;;;;;;;4191312;34;20140;-72
2021/11/15 02:09:01;;;;;;;4.40;3.37;;;;;;;;;;4178362;34;20234;-72
2021/11/15 02:11:27;;;;;;;5.70;3.78;;;;;;;;;;4191410;34;20134;-71
2021/11/15 02:13:53;;;;;;;7.30;3.37;;;;;;;;;;4191217;34;20110;-68
2021/11/15 02:16:19;;;;;;;8.93;4.37;;;;;;;;;;4191258;34;20221;-68
2021/11/15 02:18:44;;;;;;;5.35;4.12;;;;;;;;;;4190908;34;20462;-69
2021/11/15 02:21:10;;;;;;;7.18;4.28;;;;;;;;;;4191128;34;20526;-68
2021/11/15 02:23:41;;;;;;;5.35;3.87;;;;;;;;;;4190914;34;20566;-67
2021/11/15 02:26:08;;;;;;;4.12;3.67;;;;;;;;;;4191199;34;20498;-68
2021/11/15 02:28:39;;;;;;;7.53;4.00;;;;;;;;;;4191145;34;20122;-67
2021/11/15 02:31:05;;;;;;;7.05;3.55;;;;;;;;;;4191321;34;20132;-67
2021/11/15 02:33:31;;;;;;;4.43;3.28;;;;;;;;;;4190780;34;20253;-68
2021/11/15 02:36:00;;;;;;;6.10;3.60;;;;;;;;;;4190990;34;20153;-67
2021/11/15 02:38:26;;;;;;;4.37;3.78;;;;;;;;;;4191240;34;20535;-69
2021/11/15 02:40:52;;;;;;;5.28;3.80;;;;;;;;;;4190296;34;20102;-67
2021/11/15 02:43:18;;;;;;;6.95;3.92;;;;;;;;;;4190898;34;20122;-68
2021/11/15 02:45:44;;;;;;;6.12;3.45;;;;;;;;;;4191004;34;20461;-68
2021/11/15 02:48:10;;;;;;;8.02;4.55;;;;;;;;;;4189034;34;20618;-68
2021/11/15 02:50:36;;;;;;;6.82;4.22;;;;;;;;;;4188723;34;20102;-67
2021/11/15 02:53:06;;;;;;;5.87;4.07;;;;;;;;;;4188723;34;20145;-67
2021/11/15 02:55:31;;;;;;;7.50;4.55;;;;;;;;;;4189211;34;20121;-68
2021/11/15 02:57:58;;;;;;;6.32;4.18;;;;;;;;;;4188918;34;20121;-68
2021/11/15 03:00:29;;;;;;;5.43;3.87;;;;;;;;;;4175805;34;20124;-68
2021/11/15 03:02:56;;;;;;;6.60;3.90;;;;;;;;;;4189869;34;20124;-67
2021/11/15 03:05:24;;;;;;;7.30;4.43;;;;;;;;;;4189858;34;20816;-68
2021/11/15 03:07:50;;;;;;;6.18;4.25;;;;;;;;;;4188729;34;20137;-68
2021/11/15 03:10:16;;;;;;;7.57;4.37;;;;;;;;;;4175764;34;20117;-67
2021/11/15 03:12:42;;;;;;;5.95;4.50;;;;;;;;;;4188921;34;20129;-67
2021/11/15 03:15:08;;;;;;;5.20;4.25;;;;;;;;;;4188681;34;20122;-68
2021/11/15 03:17:39;;;;;;;6.47;4.28;;;;;;;;;;4188492;34;20122;-68
2021/11/15 03:20:06;;;;;;;5.40;4.90;;;;;;;;;;4189031;34;20109;-70
2021/11/15 03:22:32;;;;;;;7.93;4.72;;;;;;;;;;4189232;34;20559;-69
2021/11/15 03:24:58;;;;;;;4.85;4.35;;;;;;;;;;4190737;34;20117;-69
2021/11/15 03:27:24;;;;;;;6.95;5.03;;;;;;;;;;4189321;34;20121;-67
2021/11/15 03:29:49;;;;;;;6.90;4.70;;;;;;;;;;4190660;34;20117;-70
2021/11/15 03:32:16;;;;;;;5.93;4.85;;;;;;;;;;4190743;34;20106;-68
2021/11/15 03:34:42;;;;;;;7.43;4.40;;;;;;;;;;4177745;34;20549;-68
2021/11/15 03:37:09;;;;;;;6.12;4.95;;;;;;;;;;4190442;34;20226;-68
2021/11/15 03:39:35;;;;;;;4.68;4.22;;;;;;;;;;4188950;34;20121;-68
2021/11/15 03:42:01;;;;;;;6.37;4.07;;;;;;;;;;4190245;34;20126;-68
2021/11/15 03:44:26;;;;;;;4.80;4.03;;;;;;;;;;4190299;34;20110;-69
2021/11/15 03:46:52;;;;;;;6.50;4.20;;;;;;;;;;4190326;34;20125;-68
2021/11/15 03:49:18;;;;;;;6.62;4.05;;;;;;;;;;4190510;34;20133;-68
2021/11/15 03:51:44;;;;;;;4.57;3.80;;;;;;;;;;4190469;34;20121;-68
2021/11/15 03:54:10;;;;;;;5.80;4.47;;;;;;;;;;4192017;34;20117;-68
2021/11/15 03:56:36;;;;;;;5.12;3.95;;;;;;;;;;4192347;34;20129;-68
2021/11/15 03:59:02;;;;;;;7.53;3.95;;;;;;;;;;4190868;34;20182;-68
2021/11/15 04:01:31;;;;;;;5.37;4.28;;;;;;;;;;4192466;34;20419;-68
2021/11/15 04:04:03;;;;;;;5.90;4.07;;;;;;;;;;4192108;34;20086;-68
2021/11/15 04:06:30;;;;;;;4.78;4.32;;;;;;;;;;4192196;34;20113;-68
2021/11/15 04:08:58;;;;;;;5.25;4.12;;;;;;;;;;4192149;34;20126;-68
2021/11/15 04:11:26;;;;;;;5.40;4.18;;;;;;;;;;4192214;34;20567;-68
2021/11/15 04:13:53;;;;;;;6.55;4.22;;;;;;;;;;4192241;34;20125;-68
2021/11/15 04:16:19;;;;;;;5.95;5.03;;;;;;;;;;4192242;34;20111;-68
2021/11/15 04:18:48;;;;;;;6.12;4.53;;;;;;;;;;4192113;34;20114;-68
2021/11/15 04:21:14;;;;;;;7.50;5.05;;;;;;;;;;4192118;34;20189;-68
2021/11/15 04:23:40;;;;;;;4.05;3.62;;;;;;;;;;4192027;34;20121;-68
2021/11/15 04:26:07;;;;;;;6.93;4.32;;;;;;;;;;4192382;34;20123;-68
2021/11/15 04:28:33;;;;;;;6.97;4.25;;;;;;;;;;4192156;34;20164;-68
2021/11/15 04:30:58;;;;;;;6.25;4.47;;;;;;;;;;4192102;34;20106;-68
2021/11/15 04:33:24;;;;;;;7.50;4.43;;;;;;;;;;4191945;34;20142;-68
2021/11/15 04:35:51;;;;;;;7.12;4.47;;;;;;;;;;4192142;34;20090;-68
2021/11/15 04:38:17;;;;;;;5.30;4.25;;;;;;;;;;4192082;34;20167;-68
2021/11/15 04:40:43;;;;;;;7.47;5.15;;;;;;;;;;4192270;34;20098;-68
2021/11/15 04:43:09;;;;;;;5.93;4.68;;;;;;;;;;4191861;34;20129;-68
2021/11/15 04:45:35;;;;;;;6.50;4.80;;;;;;;;;;4191973;34;20469;-68
2021/11/15 04:48:01;;;;;;;5.85;4.43;;;;;;;;;;4179252;34;20590;-68
2021/11/15 04:50:28;;;;;;;9.60;4.70;;;;;;;;;;4192182;34;20094;-68
2021/11/15 04:52:54;;;;;;;8.40;4.87;;;;;;;;;;4191942;34;20151;-68
2021/11/15 04:55:20;;;;;;;5.95;4.53;;;;;;;;;;4190997;34;20144;-68
2021/11/15 04:57:46;;;;;;;12.40;8.93;;;;;;;;;;4192211;34;20106;-68
2021/11/15 05:00:18;;;;;;;7.10;5.82;;;;;;;;;;4191836;34;20118;-69
2021/11/15 05:02:48;;;;;;;6.37;5.18;;;;;;;;;;4191774;34;20196;-70
2021/11/15 05:05:14;;;;;;;11.20;8.90;;;;;;;;;;4191082;34;20098;-69
2021/11/15 05:07:40;;;;;;;6.12;4.93;;;;;;;;;;4191691;34;20554;-68
2021/11/15 05:10:06;;;;;;;5.93;4.80;;;;;;;;;;4191598;34;20097;-68
2021/11/15 05:12:35;;;;;;;6.60;4.80;;;;;;;;;;4178746;34;20539;-69
2021/11/15 05:15:07;;;;;;;7.87;6.15;;;;;;;;;;4191510;34;20125;-69
2021/11/15 05:17:33;;;;;;;9.13;5.62;;;;;;;;;;4191567;34;20262;-69
2021/11/15 05:19:58;;;;;;;7.68;5.25;;;;;;;;;;4191434;34;20113;-69
2021/11/15 05:22:24;;;;;;;6.62;4.43;;;;;;;;;;4190125;34;20092;-69
2021/11/15 05:24:50;;;;;;;7.50;5.20;;;;;;;;;;4191341;34;20172;-68
2021/11/15 05:27:16;;;;;;;7.20;5.20;;;;;;;;;;4191408;34;20269;-70
2021/11/15 05:29:42;;;;;;;7.45;5.57;;;;;;;;;;4190828;34;20129;-70
2021/11/15 05:32:08;;;;;;;6.03;5.15;;;;;;;;;;4191512;34;20125;-71
2021/11/15 05:34:34;;;;;;;6.35;5.57;;;;;;;;;;4178167;34;20092;-71
2021/11/15 05:37:00;;;;;;;8.75;5.18;;;;;;;;;;4190903;34;20122;-71
2021/11/15 05:39:26;;;;;;;6.93;5.25;;;;;;;;;;4189598;34;20578;-72
2021/11/15 05:41:52;;;;;;;8.05;5.18;;;;;;;;;;4190970;34;20458;-71
2021/11/15 05:44:17;;;;;;;8.05;5.45;;;;;;;;;;4189630;34;20523;-71
2021/11/15 05:46:44;;;;;;;10.10;5.60;;;;;;;;;;4191201;34;20218;-71
2021/11/15 05:49:10;;;;;;;8.88;6.00;;;;;;;;;;4190027;34;20125;-72
2021/11/15 05:51:36;;;;;;;7.57;5.65;;;;;;;;;;4191052;34;20125;-71
2021/11/15 05:54:02;;;;;;;7.60;5.50;;;;;;;;;;4190535;34;20114;-71
2021/11/15 05:56:27;;;;;;;6.00;5.30;;;;;;;;;;4191433;34;20118;-71
2021/11/15 05:58:53;;;;;;;6.57;5.30;;;;;;;;;;4191372;34;20095;-71
2021/11/15 06:01:19;;;;;;;8.63;5.87;;;;;;;;;;4178232;34;20110;-72
2021/11/15 06:03:45;;;;;;;6.72;5.40;;;;;;;;;;4191179;34;20547;-72
2021/11/15 06:06:11;;;;;;;7.97;5.82;;;;;;;;;;4191371;34;20129;-72
2021/11/15 06:08:37;;;;;;;7.53;5.55;;;;;;;;;;4178662;34;20119;-72
2021/11/15 06:11:03;;;;;;;7.82;5.53;;;;;;;;;;4191073;34;20547;-71
2021/11/15 06:13:30;;;;;;;7.82;5.35;;;;;;;;;;4191097;34;20102;-71
2021/11/15 06:15:56;;;;;;;7.45;5.75;;;;;;;;;;4190171;34;20478;-72
2021/11/15 06:18:21;;;;;;;7.68;5.40;;;;;;;;;;4191150;34;20117;-71
2021/11/15 06:20:47;;;;;;;7.93;5.70;;;;;;;;;;4189584;34;20124;-72
2021/11/15 06:23:13;;;;;;;7.68;5.60;;;;;;;;;;4190810;34;20098;-71
2021/11/15 06:25:39;;;;;;;9.43;5.40;;;;;;;;;;4189678;34;20246;-72
2021/11/15 06:28:06;;;;;;;8.70;4.90;;;;;;;;;;4190992;34;20116;-72
2021/11/15 06:30:32;;;;;;;8.07;5.50;;;;;;;;;;4190559;34;20091;-71
2021/11/15 06:32:58;;;;;;;6.25;5.65;;;;;;;;;;4191028;34;20106;-71
2021/11/15 06:35:27;;;;;;;9.45;6.37;;;;;;;;;;4177937;34;20507;-70
2021/11/15 06:37:53;;;;;;;7.70;5.45;;;;;;;;;;4190674;34;20105;-71
2021/11/15 06:40:19;;;;;;;9.88;5.80;;;;;;;;;;4190825;34;20106;-71
2021/11/15 06:42:46;;;;;;;7.07;5.00;;;;;;;;;;4177931;34;20558;-71
2021/11/15 06:45:12;;;;;;;6.82;5.47;;;;;;;;;;4189427;34;20119;-71
2021/11/15 06:47:38;;;;;;;7.25;5.00;;;;;;;;;;4189420;34;20125;-70
2021/11/15 06:50:05;;;;;;;6.12;4.70;;;;;;;;;;4190842;34;20646;-70
2021/11/15 06:52:32;;;;;;;6.18;4.87;;;;;;;;;;4190823;34;20225;-71
2021/11/15 06:54:58;;;;;;;5.55;4.75;;;;;;;;;;4190809;34;20585;-71
2021/11/15 06:57:26;;;;;;;5.18;4.65;;;;;;;;;;4178020;34;20137;-72
2021/11/15 06:59:53;;;;;;;5.55;4.70;;;;;;;;;;4190860;34;20108;-72
2021/11/15 07:02:18;;;;;;;5.60;4.70;;;;;;;;;;4190638;34;20538;-71
2021/11/15 07:04:44;;;;;;;5.85;4.50;;;;;;;;;;4189366;34;20214;-71
2021/11/15 07:07:10;;;;;;;6.97;4.80;;;;;;;;;;4190671;34;20557;-71
2021/11/15 07:09:36;;;;;;;4.97;4.35;;;;;;;;;;4189431;34;20209;-72
2021/11/15 07:12:02;;;;;;;6.90;4.80;;;;;;;;;;4190654;34;20186;-72
2021/11/15 07:14:29;;;;;;;5.75;4.32;;;;;;;;;;4190582;34;20129;-72
2021/11/15 07:16:55;;;;;;;5.15;4.55;;;;;;;;;;4190673;34;20107;-71
2021/11/15 07:19:21;;;;;;;5.15;4.65;;;;;;;;;;4190563;34;20097;-71
2021/11/15 07:21:47;;;;;;;7.22;5.43;;;;;;;;;;4190392;34;20527;-71
2021/11/15 07:24:13;;;;;;;5.22;4.20;;;;;;;;;;4190596;34;20090;-70
2021/11/15 07:26:39;;;;;;;5.47;4.60;;;;;;;;;;4190026;34;20136;-71
2021/11/15 07:29:05;;;;;;;7.62;4.93;;;;;;;;;;4190400;34;20113;-71
2021/11/15 07:31:31;;;;;;;5.25;4.50;;;;;;;;;;4190323;34;20102;-72
2021/11/15 07:33:57;;;;;;;5.87;4.40;;;;;;;;;;4190423;34;20102;-71
2021/11/15 07:36:23;;;;;;;5.72;5.03;;;;;;;;;;4189100;34;20241;-71
2021/11/15 07:38:49;;;;;;;7.37;4.37;;;;;;;;;;4190128;34;20546;-71
2021/11/15 07:41:15;;;;;;;6.60;4.72;;;;;;;;;;4190424;34;20114;-70
2021/11/15 07:43:41;;;;;;;5.80;4.55;;;;;;;;;;4190601;34;20223;-71
2021/11/15 07:46:07;;;;;;;6.55;4.55;;;;;;;;;;4190717;34;20542;-72
2021/11/15 07:48:32;;;;;;;5.07;4.50;;;;;;;;;;4190428;34;20514;-71
2021/11/15 07:51:00;;;;;;;5.65;4.55;;;;;;;;;;4188954;34;20121;-71
2021/11/15 07:53:26;;;;;;;6.32;4.22;;;;;;;;;;4189074;34;20218;-72
2021/11/15 07:55:52;;;;;;;5.72;3.80;;;;;;;;;;4188980;34;20145;-71
2021/11/15 07:58:18;;;;;;;5.47;4.35;;;;;;;;;;4188751;34;20220;-72
2021/11/15 08:00:44;;;;;;;5.53;4.47;;;;;;;;;;4190106;34;20201;-71
2021/11/15 08:03:09;;;;;;;9.07;4.00;;;;;;;;;;4190035;34;20206;-71
2021/11/15 08:05:35;;;;;;;5.12;4.25;;;;;;;;;;4189055;34;20124;-71
2021/11/15 08:08:02;;;;;;;6.28;4.07;;;;;;;;;;4188634;34;20110;-72
2021/11/15 08:10:27;;;;;;;5.57;4.03;;;;;;;;;;4188514;34;20093;-72
2021/11/15 08:12:54;;;;;;;5.95;3.72;;;;;;;;;;4190026;34;20182;-69
2021/11/15 08:15:21;;;;;;;5.45;4.60;;;;;;;;;;4190139;34;20121;-70
2021/11/15 08:17:49;;;;;;;7.00;5.87;;;;;;;;;;4188608;34;20163;-71
2021/11/15 08:20:20;;;;;;;5.93;4.55;;;;;;;;;;4176861;34;20191;-72
2021/11/15 08:22:47;;;;;;;5.32;4.07;;;;;;;;;;4188674;34;20133;-72
2021/11/15 08:25:19;;;;;;;5.22;4.50;;;;;;;;;;4177361;34;20109;-71
2021/11/15 08:27:45;;;;;;;6.25;4.80;;;;;;;;;;4189577;34;20515;-72
2021/11/15 08:30:11;;;;;;;4.95;4.47;;;;;;;;;;4188592;34;20124;-71
2021/11/15 08:32:38;;;;;;;6.30;4.57;;;;;;;;;;4188156;34;20141;-72
2021/11/15 08:35:04;;;;;;;7.25;4.90;;;;;;;;;;4188535;34;20126;-72
2021/11/15 08:37:30;;;;;;;5.57;4.97;;;;;;;;;;4188248;34;20122;-72
2021/11/15 08:39:56;;;;;;;10.20;6.37;;;;;;;;;;4178140;34;20553;-71
2021/11/15 08:42:22;;;;;;;9.70;6.78;;;;;;;;;;4190433;34;20549;-72
2021/11/15 08:44:55;;;;;;;19.45;8.35;;;;;;;;;;4190666;34;20114;-72
2021/11/15 08:47:22;;;;;;;14.80;6.50;;;;;;;;;;4191721;34;20529;-72
2021/11/15 08:49:49;;;;;;;18.10;7.20;;;;;;;;;;4191946;34;20121;-71
2021/11/15 08:52:15;;;;;;;14.60;6.40;;;;;;;;;;4191768;34;20213;-71
2021/11/15 08:54:41;;;;;;;14.20;7.28;;;;;;;;;;4179027;34;20117;-72
2021/11/15 08:57:07;;;;;;;9.82;6.80;;;;;;;;;;4191664;34;20196;-72
2021/11/15 08:59:33;;;;;;;6.53;5.75;;;;;;;;;;4191946;34;20194;-71
2021/11/15 09:02:00;;;;;;;6.72;5.05;;;;;;;;;;4191540;34;20094;-70
2021/11/15 09:04:26;;;;;;;7.87;5.43;;;;;;;;;;4191037;34;20098;-70
2021/11/15 09:06:52;;;;;;;9.50;5.70;;;;;;;;;;4189248;34;20229;-70
2021/11/15 09:09:18;;;;;;;8.63;6.78;;;;;;;;;;4190339;34;20090;-70
2021/11/15 09:11:45;;;;;;;11.32;9.27;;;;;;;;;;4190295;34;20137;-71
2021/11/15 09:14:12;;;;;;;12.73;10.85;;;;;;;;;;4187444;34;20427;-73
2021/11/15 09:16:38;;;;;;;14.90;9.68;;;;;;;;;;4191060;34;20113;-71
2021/11/15 09:19:04;;;;;;;12.00;9.38;;;;;;;;;;4191294;34;20439;-74
2021/11/15 09:21:30;;;;;;;14.32;9.90;;;;;;;;;;4193867;34;20107;-71
2021/11/15 09:23:56;;;;;;;11.68;9.38;;;;;;;;;;4190863;34;20087;-73
2021/11/15 09:26:26;;;;;;;12.05;8.52;;;;;;;;;;4191231;34;20230;-71
2021/11/15 09:28:53;;;;;;;9.70;8.68;;;;;;;;;;4191451;34;20243;-72
2021/11/15 09:31:19;;;;;;;14.15;9.68;;;;;;;;;;4177794;34;20126;-72
2021/11/15 09:33:45;;;;;;;19.60;9.73;;;;;;;;;;4177701;34;20495;-72
2021/11/15 09:36:11;;;;;;;18.92;9.82;;;;;;;;;;4190522;34;20089;-73
2021/11/15 09:38:39;;;;;;;18.42;10.05;;;;;;;;;;4191234;34;20539;-73
2021/11/15 09:41:05;;;;;;;20.08;9.85;;;;;;;;;;4191330;34;20085;-72
2021/11/15 09:43:34;;;;;;;15.30;9.70;;;;;;;;;;4191447;34;20555;-71
2021/11/15 09:46:10;;;;;;;22.02;10.15;;;;;;;;;;4190828;34;20290;-72
2021/11/15 09:48:39;;;;;;;19.35;11.45;;;;;;;;;;4190908;34;20435;-73
2021/11/15 09:51:06;;;;;;;20.58;9.35;;;;;;;;;;4191323;34;20100;-72
2021/11/15 09:53:35;;;;;;;18.20;10.80;;;;;;;;;;4190517;34;20138;-64
2021/11/15 09:56:01;;;;;;;25.23;11.30;;;;;;;;;;4190867;34;20573;-64
2021/11/15 09:58:28;;;;;;;14.38;9.35;;;;;;;;;;4191084;34;20102;-64
2021/11/15 10:00:54;;;;;;;11.07;9.18;;;;;;;;;;4189694;34;20249;-64
2021/11/15 10:03:20;;;;;;;10.32;7.62;;;;;;;;;;4190980;34;20630;-64
2021/11/15 10:05:49;;;;;;;10.23;7.43;;;;;;;;;;4190692;34;20118;-65
2021/11/15 10:08:14;;;;;;;9.15;7.90;;;;;;;;;;4191097;34;20543;-65
2021/11/15 10:10:44;;;;;;;9.48;8.57;;;;;;;;;;4190675;34;20221;-63
2021/11/15 10:13:19;;;;;;;13.70;11.02;;;;;;;;;;4191410;34;20643;-63
2021/11/15 10:15:58;;;;;;;14.98;10.10;;;;;;;;;;4190625;34;20553;-63
2021/11/15 10:18:32;;;;;;;9.90;8.57;;;;;;;;;;4190705;34;20431;-63
2021/11/15 10:20:59;;;;;;;12.48;10.15;;;;;;;;;;4190937;34;20122;-64
2021/11/15 10:23:28;;;;;;;11.65;10.05;;;;;;;;;;4189264;34;20203;-64
2021/11/15 10:25:59;;;;;;;11.70;9.30;;;;;;;;;;4190582;34;20514;-64
2021/11/15 10:28:25;;;;;;;12.60;8.82;;;;;;;;;;4189501;34;20129;-64
2021/11/15 10:30:50;;;;;;;8.93;7.20;;;;;;;;;;4190903;34;20109;-64
2021/11/15 10:33:18;;;;;;;9.50;8.13;;;;;;;;;;4189629;34;20544;-64
2021/11/15 10:35:46;;;;;;;9.38;6.97;;;;;;;;;;4190318;34;20420;-64
2021/11/15 10:38:13;;;;;;;10.98;6.90;;;;;;;;;;4190796;34;20524;-64
2021/11/15 10:40:40;;;;;;;7.57;5.43;;;;;;;;;;4166698;34;20109;-64
2021/11/15 10:43:09;;;;;;;13.85;5.75;;;;;;;;;;4191030;34;20109;-64
2021/11/15 10:45:38;;;;;;;7.70;5.12;;;;;;;;;;4190710;34;20435;-63
2021/11/15 10:48:17;;;;;;;10.98;5.60;;;;;;;;;;4190093;34;20181;-63
2021/11/15 10:50:46;;;;;;;8.73;5.70;;;;;;;;;;4190390;34;20124;-63
2021/11/15 10:53:18;;;;;;;6.47;5.15;;;;;;;;;;4189836;34;20128;-63
2021/11/15 10:56:04;;;;;;;8.43;4.78;;;;;;;;;;4190633;34;20269;-63
2021/11/15 10:58:38;;;;;;;7.07;4.90;;;;;;;;;;4190490;34;20118;-62
2021/11/15 11:01:05;;;;;;;4.87;4.20;;;;;;;;;;4189970;34;20177;-61
2021/11/15 11:03:31;;;;;;;4.90;3.97;;;;;;;;;;4190254;34;20194;-63
2021/11/15 11:06:00;;;;;;;7.10;4.30;;;;;;;;;;4190377;34;20086;-63
2021/11/15 11:08:27;;;;;;;5.72;4.25;;;;;;;;;;4190276;34;20145;-63
2021/11/15 11:11:01;;;;;;;11.63;5.28;;;;;;;;;;4190559;34;20091;-63
2021/11/15 11:13:40;;;;;;;6.90;5.22;;;;;;;;;;4190307;34;20126;-63
2021/11/15 11:16:06;;;;;;;9.93;4.80;;;;;;;;;;4190136;34;20102;-62
2021/11/15 11:18:37;;;;;;;6.20;4.10;;;;;;;;;;4190277;34;20110;-62
2021/11/15 11:21:42;;;;;;;6.00;4.97;;;;;;;;;;4190645;34;20470;-63
2021/11/15 11:27:14;;;;;;;7.15;5.10;;;;;;;;;;4184012;34;20130;-64
2021/11/15 11:29:50;;;;;;;5.80;4.20;;;;;;;;;;4190388;34;20121;-62
2021/11/15 11:32:21;;;;;;;5.95;4.05;;;;;;;;;;4189066;34;20137;-62
2021/11/15 11:34:48;;;;;;;7.30;5.10;;;;;;;;;;4190264;34;20133;-62
2021/11/15 11:37:16;;;;;;;12.45;9.18;;;;;;;;;;4190271;34;20214;-62
2021/11/15 11:39:42;;;;;;;12.18;8.63;;;;;;;;;;4190254;34;20086;-62
2021/11/15 11:42:08;;;;;;;10.88;6.75;;;;;;;;;;4190224;34;20576;-62
2021/11/15 11:44:35;;;;;;;8.40;4.78;;;;;;;;;;4190217;34;20106;-63
2021/11/15 11:47:02;;;;;;;9.63;4.28;;;;;;;;;;4188746;34;20630;-64
2021/11/15 11:49:29;;;;;;;17.05;4.43;;;;;;;;;;4188806;34;20102;-65
2021/11/15 11:52:00;;;;;;;14.98;4.40;;;;;;;;;;4190391;34;20109;-63
2021/11/15 11:54:29;;;;;;;7.97;4.18;;;;;;;;;;4189935;34;20186;-63
2021/11/15 11:57:01;;;;;;;11.63;5.47;;;;;;;;;;4188828;34;20102;-63
2021/11/15 11:59:27;;;;;;;7.40;3.83;;;;;;;;;;4190163;34;20294;-63
2021/11/15 12:02:04;;;;;;;9.45;6.87;;;;;;;;;;4189886;34;20121;-64
2021/11/15 12:04:30;;;;;;;13.35;9.25;;;;;;;;;;4190048;34;20116;-63
2021/11/15 12:06:56;;;;;;;11.27;8.95;;;;;;;;;;4190028;34;20149;-63
2021/11/15 12:09:23;;;;;;;8.57;5.12;;;;;;;;;;4190044;34;20122;-63
2021/11/15 12:11:59;;;;;;;8.20;6.30;;;;;;;;;;4189791;34;20149;-64
2021/11/15 12:14:32;;;;;;;6.60;5.85;;;;;;;;;;4191806;34;20221;-65
2021/11/15 12:17:03;;;;;;;6.87;5.00;;;;;;;;;;4189131;34;20695;-64
2021/11/15 12:19:50;;;;;;;4.28;3.87;;;;;;;;;;4177708;34;20536;-64
2021/11/15 12:22:21;;;;;;;5.40;4.10;;;;;;;;;;4190800;34;20197;-63
2021/11/15 12:25:05;;;;;;;3.90;3.55;;;;;;;;;;4190941;34;20530;-63
2021/11/15 12:27:44;;;;;;;5.65;4.00;;;;;;;;;;4190593;34;20114;-63
2021/11/15 12:30:17;;;;;;;6.05;5.25;;;;;;;;;;4190830;34;20122;-64
2021/11/15 12:32:45;;;;;;;6.40;5.28;;;;;;;;;;4166502;34;20137;-63
2021/11/15 12:35:11;;;;;;;6.20;4.82;;;;;;;;;;4190620;34;20097;-64
2021/11/15 12:37:39;;;;;;;5.32;3.70;;;;;;;;;;4190547;34;20134;-63
2021/11/15 12:40:06;;;;;;;4.40;3.53;;;;;;;;;;4190866;34;20106;-63
2021/11/15 12:42:32;;;;;;;6.85;4.10;;;;;;;;;;4191711;34;20102;-64
2021/11/15 12:45:23;;;;;;;6.22;4.18;;;;;;;;;;4179121;34;20194;-63
2021/11/15 12:47:49;;;;;;;5.97;4.43;;;;;;;;;;4191749;34;20273;-63
2021/11/15 12:50:22;;;;;;;5.82;4.55;;;;;;;;;;4191839;34;20122;-64
2021/11/15 12:52:55;;;;;;;9.93;4.15;;;;;;;;;;4192037;34;20256;-63
2021/11/15 12:55:22;;;;;;;4.25;3.80;;;;;;;;;;4191978;34;20120;-63
2021/11/15 12:57:49;;;;;;;6.32;4.12;;;;;;;;;;4191862;34;20122;-63
2021/11/15 13:00:23;;;;;;;4.15;3.70;;;;;;;;;;4191983;34;20110;-63
2021/11/15 13:03:04;;;;;;;4.90;4.25;;;;;;;;;;4188913;34;20549;-63
2021/11/15 13:05:38;;;;;;;6.07;5.05;;;;;;;;;;4191441;34;20542;-64
2021/11/15 13:08:07;;;;;;;7.35;5.32;;;;;;;;;;4191225;34;20216;-64
2021/11/15 13:10:33;;;;;;;4.93;3.95;;;;;;;;;;4191340;34;20112;-63
2021/11/15 13:12:59;;;;;;;7.68;5.68;;;;;;;;;;4190166;34;20201;-64
2021/11/15 13:15:26;;;;;;;5.22;4.72;;;;;;;;;;4190873;34;20134;-64
2021/11/15 13:17:52;;;;;;;6.25;3.87;;;;;;;;;;4191079;34;20113;-64
2021/11/15 13:20:18;;;;;;;8.48;4.75;;;;;;;;;;4191315;34;20518;-64
2021/11/15 13:22:44;;;;;;;6.07;4.18;;;;;;;;;;4191183;34;20101;-64
2021/11/15 13:25:11;;;;;;;5.97;4.40;;;;;;;;;;4190420;34;20112;-64
2021/11/15 13:27:37;;;;;;;8.77;4.53;;;;;;;;;;4191185;34;20221;-65
2021/11/15 13:30:06;;;;;;;8.15;4.37;;;;;;;;;;4191313;34;20122;-65
2021/11/15 13:32:32;;;;;;;6.80;3.90;;;;;;;;;;4191096;34;20146;-65
2021/11/15 13:34:58;;;;;;;6.25;3.90;;;;;;;;;;4191161;34;20695;-63
2021/11/15 13:37:24;;;;;;;7.68;3.80;;;;;;;;;;4190719;34;20136;-63
2021/11/15 13:39:50;;;;;;;5.22;3.72;;;;;;;;;;4191333;34;20122;-65
2021/11/15 13:42:16;;;;;;;4.75;3.65;;;;;;;;;;4190850;34;20113;-65
2021/11/15 13:44:42;;;;;;;3.85;3.22;;;;;;;;;;4191031;34;20602;-65
2021/11/15 13:47:16;;;;;;;4.22;3.83;;;;;;;;;;4191089;34;20569;-64
2021/11/15 13:49:42;;;;;;;9.02;6.05;;;;;;;;;;4190894;34;20158;-64
2021/11/15 13:52:09;;;;;;;12.48;8.85;;;;;;;;;;4190198;34;20573;-64
2021/11/15 13:54:40;;;;;;;11.93;7.50;;;;;;;;;;4190712;34;20218;-64
2021/11/15 13:57:06;;;;;;;12.05;7.32;;;;;;;;;;4191126;34;20525;-65
2021/11/15 13:59:31;;;;;;;8.63;6.55;;;;;;;;;;4188694;34;20102;-65
2021/11/15 14:01:57;;;;;;;6.35;4.95;;;;;;;;;;4191341;34;20289;-64
2021/11/15 14:04:23;;;;;;;4.22;3.55;;;;;;;;;;4191317;34;20474;-64
2021/11/15 14:06:49;;;;;;;3.72;3.28;;;;;;;;;;4191200;34;20214;-64
2021/11/15 14:09:15;;;;;;;6.00;4.43;;;;;;;;;;4191375;34;20447;-64
2021/11/15 14:11:41;;;;;;;4.20;3.65;;;;;;;;;;4191270;34;20553;-63
2021/11/15 14:14:07;;;;;;;6.60;4.22;;;;;;;;;;4191406;34;20110;-62
2021/11/15 14:16:33;;;;;;;6.57;3.90;;;;;;;;;;4191113;34;20462;-63
2021/11/15 14:18:58;;;;;;;5.87;4.30;;;;;;;;;;4190960;34;20114;-63
2021/11/15 14:21:24;;;;;;;7.22;4.40;;;;;;;;;;4191115;34;20125;-63
2021/11/15 14:23:50;;;;;;;4.30;3.90;;;;;;;;;;4191051;34;20125;-64
2021/11/15 14:26:16;;;;;;;6.10;4.32;;;;;;;;;;4191244;34;20130;-64
2021/11/15 14:28:42;;;;;;;6.15;4.00;;;;;;;;;;4190911;34;20133;-64
2021/11/15 14:31:10;;;;;;;5.05;4.00;;;;;;;;;;4191725;34;20164;-63
2021/11/15 14:33:37;;;;;;;5.28;3.85;;;;;;;;;;4191186;34;20466;-63
2021/11/15 14:36:03;;;;;;;5.25;4.12;;;;;;;;;;4190762;34;20229;-63
2021/11/15 14:38:29;;;;;;;7.05;4.18;;;;;;;;;;4190592;34;20185;-62
2021/11/15 14:40:55;;;;;;;5.70;4.22;;;;;;;;;;4191066;34;20217;-63
2021/11/15 14:43:21;;;;;;;7.75;4.45;;;;;;;;;;4190755;34;20118;-62
2021/11/15 14:45:51;;;;;;;5.28;4.32;;;;;;;;;;4190825;34;20222;-63
2021/11/15 14:48:17;;;;;;;6.05;4.20;;;;;;;;;;4190936;34;20122;-62
2021/11/15 14:50:43;;;;;;;7.18;3.90;;;;;;;;;;4190617;34;20140;-62
2021/11/15 14:53:10;;;;;;;6.28;4.45;;;;;;;;;;4190749;34;20709;-64
2021/11/15 14:55:36;;;;;;;5.90;4.43;;;;;;;;;;4190582;34;20192;-62
2021/11/15 14:58:02;;;;;;;6.68;4.90;;;;;;;;;;4190562;34;20094;-62
2021/11/15 15:00:28;;;;;;;6.32;4.50;;;;;;;;;;4191113;34;20503;-63
2021/11/15 15:02:54;;;;;;;7.25;5.18;;;;;;;;;;4187701;34;20510;-64